createdAt,value
2018-06-30T00:00:21.501Z,1010.53
2018-06-30T00:05:17.255Z,1010.47
2018-06-30T00:10:13.313Z,1010.47
2018-06-30T00:15:09.215Z,1010.53
2018-06-30T00:20:05.186Z,1010.50
2018-06-30T00:25:00.942Z,1010.45
2018-06-30T00:29:57.126Z,1010.40
2018-06-30T00:34:52.998Z,1010.49
2018-06-30T00:39:48.701Z,1010.37
2018-06-30T00:44:45.713Z,1010.36
2018-06-30T00:49:41.481Z,1010.36
2018-06-30T00:54:37.114Z,1010.37
2018-06-30T00:59:33.969Z,1010.37
2018-06-30T01:04:29.417Z,1010.43
2018-06-30T01:09:25.367Z,1010.42
2018-06-30T01:14:21.706Z,1010.42
2018-06-30T01:19:17.267Z,1010.42
2018-06-30T01:24:13.117Z,1010.44
2018-06-30T01:29:08.904Z,1010.41
2018-06-30T01:34:05.567Z,1010.47
2018-06-30T01:39:02.066Z,1010.44
2018-06-30T01:43:58.515Z,1010.41
2018-06-30T01:48:54.480Z,1010.33
2018-06-30T01:53:50.225Z,1010.39
2018-06-30T01:58:46.147Z,1010.40
2018-06-30T02:03:42.741Z,1010.41
2018-06-30T02:08:38.864Z,1010.38
2018-06-30T02:13:36.319Z,1010.33
2018-06-30T02:18:32.700Z,1010.37
2018-06-30T02:23:29.554Z,1010.40
2018-06-30T02:28:24.989Z,1010.36
2018-06-30T02:33:20.905Z,1010.41
2018-06-30T02:38:16.680Z,1010.41
2018-06-30T02:43:13.245Z,1010.50
2018-06-30T02:48:09.525Z,1010.48
2018-06-30T02:53:05.611Z,1010.51
2018-06-30T02:58:01.326Z,1010.52
2018-06-30T03:02:57.313Z,1010.59
2018-06-30T03:07:53.256Z,1010.63
2018-06-30T03:12:49.275Z,1010.66
2018-06-30T03:17:45.212Z,1010.62
2018-06-30T03:22:41.713Z,1010.64
2018-06-30T03:27:37.365Z,1010.64
2018-06-30T03:32:34.313Z,1010.57
2018-06-30T03:37:29.861Z,1010.58
2018-06-30T03:42:26.513Z,1010.60
2018-06-30T03:47:22.940Z,1010.57
2018-06-30T03:52:18.821Z,1010.56
2018-06-30T03:57:15.873Z,1010.58
2018-06-30T04:02:12.646Z,1010.56
2018-06-30T04:07:08.586Z,1010.48
2018-06-30T04:12:04.690Z,1010.53
2018-06-30T04:17:02.183Z,1010.54
2018-06-30T04:21:57.789Z,1010.52
2018-06-30T04:26:53.754Z,1010.54
2018-06-30T04:31:49.776Z,1010.65
2018-06-30T04:36:45.680Z,1010.58
2018-06-30T04:41:42.438Z,1010.66
2018-06-30T04:46:39.729Z,1010.62
2018-06-30T04:51:36.506Z,1010.66
2018-06-30T04:56:33.231Z,1010.59
2018-06-30T05:01:30.050Z,1010.69
2018-06-30T05:06:27.888Z,1010.68
2018-06-30T05:11:24.932Z,1010.86
2018-06-30T05:16:21.105Z,1010.81
2018-06-30T05:21:17.333Z,1010.80
2018-06-30T05:26:13.671Z,1010.81
2018-06-30T05:31:11.355Z,1010.78
2018-06-30T05:36:08.025Z,1010.91
2018-06-30T05:41:04.683Z,1010.86
2018-06-30T05:46:01.419Z,1010.88
2018-06-30T05:50:58.040Z,1010.91
2018-06-30T05:55:53.210Z,1010.94
2018-06-30T06:00:50.610Z,1010.96
2018-06-30T06:05:43.948Z,1010.95
2018-06-30T06:10:37.853Z,1010.96
2018-06-30T06:15:32.911Z,1010.97
2018-06-30T06:20:28.353Z,1010.92
2018-06-30T06:25:24.830Z,1011.00
2018-06-30T06:30:20.248Z,1010.95
2018-06-30T06:35:17.272Z,1011.06
2018-06-30T06:40:13.747Z,1011.04
2018-06-30T06:45:10.390Z,1011.14
2018-06-30T06:50:05.793Z,1011.03
2018-06-30T06:55:02.939Z,1010.96
2018-06-30T06:59:58.449Z,1010.94
2018-06-30T07:04:54.440Z,1010.98
2018-06-30T07:09:51.551Z,1010.95
2018-06-30T07:14:47.243Z,1010.96
2018-06-30T07:19:42.974Z,1010.92
2018-06-30T07:24:40.023Z,1010.97
2018-06-30T07:29:35.992Z,1010.88
2018-06-30T07:34:31.883Z,1010.99
2018-06-30T07:39:29.161Z,1011.05
2018-06-30T07:44:25.321Z,1011.00
2018-06-30T07:49:21.616Z,1011.06
2018-06-30T07:54:23.379Z,1011.14
2018-06-30T07:59:23.958Z,1011.05
2018-06-30T08:04:23.818Z,1011.13
2018-06-30T08:09:21.225Z,1010.99
2018-06-30T08:14:19.104Z,1011.07
2018-06-30T08:19:17.673Z,1010.96
2018-06-30T08:24:13.760Z,1011.07
2018-06-30T08:29:08.665Z,1011.12
2018-06-30T08:34:05.866Z,1011.16
2018-06-30T08:39:02.596Z,1011.18
2018-06-30T08:43:58.510Z,1011.21
2018-06-30T08:48:55.015Z,1011.28
2018-06-30T08:53:51.743Z,1011.17
2018-06-30T08:58:48.808Z,1011.14
2018-06-30T09:03:46.483Z,1011.23
2018-06-30T09:13:42.985Z,1011.35
2018-06-30T09:18:39.302Z,1011.29
2018-06-30T09:23:35.554Z,1011.28
2018-06-30T09:28:33.225Z,1011.32
2018-06-30T09:33:28.966Z,1011.26
2018-06-30T09:38:24.828Z,1011.20
2018-06-30T09:43:21.174Z,1011.43
2018-06-30T09:48:16.195Z,1011.30
2018-06-30T09:53:11.725Z,1011.33
2018-06-30T09:58:08.253Z,1011.29
2018-06-30T10:03:04.323Z,1011.25
2018-06-30T10:08:02.163Z,1011.24
2018-06-30T10:12:59.219Z,1011.16
2018-06-30T10:17:55.976Z,1011.18
2018-06-30T10:22:52.471Z,1011.25
2018-06-30T10:27:49.095Z,1011.19
2018-06-30T10:32:46.400Z,1011.25
2018-06-30T10:37:43.327Z,1011.26
2018-06-30T10:42:39.601Z,1011.20
2018-06-30T10:47:35.880Z,1011.08
2018-06-30T10:52:33.478Z,1011.11
2018-06-30T10:57:29.046Z,1011.09
2018-06-30T11:02:26.144Z,1011.08
2018-06-30T11:07:22.768Z,1010.86
2018-06-30T11:12:19.913Z,1010.79
2018-06-30T11:17:16.646Z,1010.83
2018-06-30T11:22:13.962Z,1010.77
2018-06-30T11:27:10.053Z,1010.71
2018-06-30T11:32:06.118Z,1010.62
2018-06-30T11:37:02.771Z,1010.68
2018-06-30T11:41:59.113Z,1010.53
2018-06-30T11:46:54.755Z,1010.54
2018-06-30T11:51:49.849Z,1010.47
2018-06-30T11:56:46.424Z,1010.43
2018-06-30T12:01:43.797Z,1010.39
2018-06-30T12:06:41.735Z,1010.50
2018-06-30T12:11:37.020Z,1010.48
2018-06-30T12:16:33.432Z,1010.29
2018-06-30T12:21:31.260Z,1010.30
2018-06-30T12:26:26.222Z,1010.28
2018-06-30T12:31:21.898Z,1010.18
2018-06-30T12:36:17.797Z,1010.25
2018-06-30T12:41:13.872Z,1010.29
2018-06-30T12:46:11.230Z,1010.28
2018-06-30T12:51:08.119Z,1010.18
2018-06-30T12:56:04.106Z,1010.20
2018-06-30T13:01:00.669Z,1010.21
2018-06-30T13:05:57.593Z,1010.13
2018-06-30T13:10:53.034Z,1010.11
2018-06-30T13:15:48.267Z,1010.23
2018-06-30T13:20:43.501Z,1010.31
2018-06-30T13:25:40.308Z,1010.06
2018-06-30T13:30:37.369Z,1010.05
2018-06-30T13:35:33.775Z,1009.96
2018-06-30T13:40:29.131Z,1010.00
2018-06-30T13:45:26.275Z,1010.04
2018-06-30T13:50:22.480Z,1009.93
2018-06-30T13:55:17.893Z,1009.92
2018-06-30T14:00:13.841Z,1009.74
2018-06-30T14:05:09.245Z,1009.76
2018-06-30T14:10:03.668Z,1009.82
2018-06-30T14:14:58.403Z,1009.77
2018-06-30T14:19:54.580Z,1009.67
2018-06-30T14:24:49.760Z,1009.85
2018-06-30T14:29:45.107Z,1009.74
2018-06-30T14:34:41.026Z,1009.70
2018-06-30T14:39:36.896Z,1009.67
2018-06-30T14:44:32.735Z,1009.78
2018-06-30T14:49:28.681Z,1009.79
2018-06-30T14:54:24.267Z,1009.69
2018-06-30T14:59:20.118Z,1009.70
2018-06-30T15:04:16.319Z,1009.56
2018-06-30T15:09:12.287Z,1009.71
2018-06-30T15:14:08.522Z,1009.51
2018-06-30T15:19:04.472Z,1009.58
2018-06-30T15:24:00.679Z,1009.54
2018-06-30T15:28:57.639Z,1009.59
2018-06-30T15:33:53.319Z,1009.57
2018-06-30T15:38:50.186Z,1009.69
2018-06-30T15:43:45.693Z,1009.61
2018-06-30T15:48:41.560Z,1009.56
2018-06-30T15:53:37.633Z,1009.49
2018-06-30T15:58:33.815Z,1009.55
2018-06-30T16:03:29.744Z,1009.55
2018-06-30T16:08:25.825Z,1009.59
2018-06-30T16:13:22.881Z,1009.55
2018-06-30T16:18:18.937Z,1009.45
2018-06-30T16:23:14.891Z,1009.36
2018-06-30T16:28:11.782Z,1009.37
2018-06-30T16:33:07.294Z,1009.29
2018-06-30T16:38:03.662Z,1009.40
2018-06-30T16:42:59.688Z,1009.54
2018-06-30T16:47:55.617Z,1009.33
2018-06-30T16:52:51.437Z,1009.37
2018-06-30T16:57:47.512Z,1009.35
2018-06-30T17:02:43.489Z,1009.27
2018-06-30T17:07:39.243Z,1009.49
2018-06-30T17:12:35.280Z,1009.50
2018-06-30T17:17:31.221Z,1009.49
2018-06-30T17:22:27.002Z,1009.39
2018-06-30T17:27:22.920Z,1009.30
2018-06-30T17:32:20.210Z,1009.44
2018-06-30T17:37:16.659Z,1009.35
2018-06-30T17:42:13.260Z,1009.41
2018-06-30T17:47:09.170Z,1009.36
2018-06-30T17:52:05.104Z,1009.43
2018-06-30T17:57:00.972Z,1009.48
2018-06-30T18:01:56.789Z,1009.54
2018-06-30T18:06:52.889Z,1009.47
2018-06-30T18:11:49.864Z,1009.49
2018-06-30T18:16:45.267Z,1009.50
2018-06-30T18:21:41.576Z,1009.59
2018-06-30T18:26:37.356Z,1009.65
2018-06-30T18:31:33.815Z,1009.74
2018-06-30T18:36:30.080Z,1009.74
2018-06-30T18:41:25.704Z,1009.85
2018-06-30T18:46:21.555Z,1009.70
2018-06-30T18:51:17.630Z,1009.76
2018-06-30T18:56:13.636Z,1009.74
2018-06-30T19:01:09.649Z,1009.80
2018-06-30T19:06:05.449Z,1009.79
2018-06-30T19:11:01.260Z,1009.89
2018-06-30T19:15:57.068Z,1009.92
2018-06-30T19:20:53.941Z,1009.98
2018-06-30T19:25:49.331Z,1010.01
2018-06-30T19:30:45.119Z,1010.06
2018-06-30T19:35:41.444Z,1010.13
2018-06-30T19:40:37.450Z,1010.09
2018-06-30T19:45:33.255Z,1010.21
2018-06-30T19:50:29.044Z,1010.25
2018-06-30T19:55:24.779Z,1010.19
2018-06-30T20:00:20.852Z,1010.30
2018-06-30T20:05:16.743Z,1010.26
2018-06-30T20:10:12.702Z,1010.44
2018-06-30T20:15:08.481Z,1010.47
2018-06-30T20:20:03.980Z,1010.44
2018-06-30T20:24:59.640Z,1010.46
2018-06-30T20:29:56.540Z,1010.46
2018-06-30T20:34:52.287Z,1010.47
2018-06-30T20:39:48.077Z,1010.51
2018-06-30T20:44:44.040Z,1010.51
2018-06-30T20:49:40.722Z,1010.54
2018-06-30T20:54:36.133Z,1010.55
2018-06-30T20:59:32.887Z,1010.60
2018-06-30T21:04:29.401Z,1010.61
2018-06-30T21:09:25.502Z,1010.70
2018-06-30T21:14:21.272Z,1010.75
2018-06-30T21:19:17.122Z,1010.74
2018-06-30T21:24:13.042Z,1010.71
2018-06-30T21:29:08.876Z,1010.87
2018-06-30T21:34:05.580Z,1010.92
2018-06-30T21:39:01.022Z,1010.94
2018-06-30T21:43:56.664Z,1010.88
2018-06-30T21:48:53.371Z,1011.09
2018-06-30T21:53:50.170Z,1010.93
2018-06-30T21:58:45.825Z,1011.05
2018-06-30T22:03:42.635Z,1011.04
2018-06-30T22:08:39.779Z,1011.06
2018-06-30T22:13:36.681Z,1011.18
2018-06-30T22:18:32.310Z,1011.15
2018-06-30T22:23:28.892Z,1011.19
2018-06-30T22:28:24.588Z,1011.27
2018-06-30T22:33:20.658Z,1011.26
2018-06-30T22:38:17.281Z,1011.42
2018-06-30T22:43:13.577Z,1011.33
2018-06-30T22:48:09.841Z,1011.37
2018-06-30T22:53:05.648Z,1011.38
2018-06-30T22:58:01.252Z,1011.35
2018-06-30T23:02:59.290Z,1011.45
2018-06-30T23:07:54.546Z,1011.52
2018-06-30T23:12:50.413Z,1011.45
2018-06-30T23:17:46.011Z,1011.52
2018-06-30T23:22:43.800Z,1011.61
2018-06-30T23:27:39.987Z,1011.55
2018-06-30T23:32:36.517Z,1011.57
2018-06-30T23:37:33.142Z,1011.64
2018-06-30T23:42:28.213Z,1011.59
2018-06-30T23:47:23.627Z,1011.66
2018-06-30T23:52:19.549Z,1011.72
2018-06-30T23:57:17.288Z,1011.74
